createdAt,value
2023-05-18T00:00:49.100Z,2.70
2023-05-18T00:01:47.834Z,3.00
2023-05-18T00:02:47.913Z,2.90
2023-05-18T00:03:47.936Z,2.60
2023-05-18T00:04:47.993Z,2.30
2023-05-18T00:05:47.794Z,2.40
2023-05-18T00:06:47.737Z,2.20
2023-05-18T00:07:47.827Z,2.70
2023-05-18T00:08:47.764Z,2.70
2023-05-18T00:09:47.806Z,2.60
2023-05-18T00:10:47.703Z,2.20
2023-05-18T00:11:47.757Z,2.40
2023-05-18T00:12:47.788Z,2.30
2023-05-18T00:13:47.651Z,2.20
2023-05-18T00:14:47.690Z,2.40
2023-05-18T00:15:47.749Z,2.70
2023-05-18T00:16:47.814Z,2.20
2023-05-18T00:17:47.668Z,2.40
2023-05-18T00:18:47.665Z,2.40
2023-05-18T00:19:47.621Z,2.20
2023-05-18T00:20:47.626Z,2.30
2023-05-18T00:21:47.575Z,2.20
2023-05-18T00:22:47.550Z,2.20
2023-05-18T00:23:47.568Z,2.10
2023-05-18T00:24:47.537Z,2.20
2023-05-18T00:25:47.509Z,2.10
2023-05-18T00:26:47.540Z,2.10
2023-05-18T00:27:47.527Z,2.10
2023-05-18T00:28:47.474Z,3.00
2023-05-18T00:29:47.473Z,2.30
2023-05-18T00:30:47.487Z,2.20
2023-05-18T00:31:47.520Z,2.30
2023-05-18T00:32:47.485Z,2.40
2023-05-18T00:33:47.458Z,2.50
2023-05-18T00:34:47.425Z,2.40
2023-05-18T00:35:47.420Z,2.30
2023-05-18T00:36:47.390Z,2.30
2023-05-18T00:37:47.445Z,2.60
2023-05-18T00:38:47.379Z,2.50
2023-05-18T00:39:47.377Z,2.30
2023-05-18T00:40:47.379Z,2.20
2023-05-18T00:41:47.339Z,2.40
2023-05-18T00:42:47.339Z,2.30
2023-05-18T00:43:47.349Z,2.40
2023-05-18T00:44:47.309Z,2.20
2023-05-18T00:45:47.477Z,2.00
2023-05-18T00:46:47.321Z,2.20
2023-05-18T00:47:47.354Z,2.10
2023-05-18T00:48:47.283Z,2.00
2023-05-18T00:49:47.264Z,2.20
2023-05-18T00:50:47.249Z,2.10
2023-05-18T00:51:47.232Z,2.10
2023-05-18T00:52:47.264Z,1.80
2023-05-18T00:53:47.211Z,2.30
2023-05-18T00:54:47.204Z,2.30
2023-05-18T00:55:47.195Z,2.10
2023-05-18T00:56:47.160Z,2.00
2023-05-18T00:57:47.213Z,1.90
2023-05-18T00:58:47.155Z,1.70
2023-05-18T00:59:47.140Z,1.90
2023-05-18T01:00:47.123Z,2.30
2023-05-18T01:01:47.100Z,2.00
2023-05-18T01:02:47.192Z,2.00
2023-05-18T01:03:47.113Z,2.00
2023-05-18T01:04:47.077Z,1.60
2023-05-18T01:05:47.076Z,1.80
2023-05-18T01:06:47.057Z,2.00
2023-05-18T01:07:47.065Z,1.80
2023-05-18T01:08:47.030Z,2.00
2023-05-18T01:09:47.057Z,1.90
2023-05-18T01:10:47.025Z,1.80
2023-05-18T01:11:47.023Z,1.90
2023-05-18T01:12:47.010Z,1.90
2023-05-18T01:13:46.984Z,2.30
2023-05-18T01:14:46.982Z,2.00
2023-05-18T01:15:46.954Z,2.20
2023-05-18T01:16:47.023Z,2.00
2023-05-18T01:17:46.960Z,2.20
2023-05-18T01:18:46.952Z,2.20
2023-05-18T01:19:46.909Z,2.20
2023-05-18T01:20:46.923Z,2.10
2023-05-18T01:21:46.870Z,2.20
2023-05-18T01:22:46.973Z,2.40
2023-05-18T01:23:46.873Z,2.30
2023-05-18T01:24:46.852Z,2.20
2023-05-18T01:25:46.826Z,2.40
2023-05-18T01:26:46.853Z,2.30
2023-05-18T01:27:46.826Z,2.10
2023-05-18T01:28:46.830Z,2.00
2023-05-18T01:29:46.789Z,2.00
2023-05-18T01:30:46.818Z,2.40
2023-05-18T01:31:46.766Z,2.50
2023-05-18T01:32:46.904Z,2.60
2023-05-18T01:33:46.746Z,2.10
2023-05-18T01:34:46.756Z,2.40
2023-05-18T01:35:46.736Z,2.40
2023-05-18T01:36:46.709Z,2.20
2023-05-18T01:37:46.708Z,2.10
2023-05-18T01:38:46.685Z,2.10
2023-05-18T01:39:46.666Z,2.30
2023-05-18T01:40:46.685Z,2.40
2023-05-18T01:41:46.664Z,2.30
2023-05-18T01:42:46.664Z,2.50
2023-05-18T01:43:46.636Z,2.20
2023-05-18T01:44:46.608Z,2.70
2023-05-18T01:45:46.657Z,2.10
2023-05-18T01:46:46.686Z,2.80
2023-05-18T01:47:46.634Z,2.30
2023-05-18T01:48:46.559Z,2.10
2023-05-18T01:49:46.571Z,2.20
2023-05-18T01:50:46.553Z,2.20
2023-05-18T01:51:46.558Z,2.40
2023-05-18T01:52:46.520Z,2.30
2023-05-18T01:53:46.529Z,2.50
2023-05-18T01:54:46.525Z,2.10
2023-05-18T01:55:46.483Z,2.40
2023-05-18T01:56:46.844Z,2.30
2023-05-18T01:57:46.547Z,2.10
2023-05-18T01:58:46.473Z,2.10
2023-05-18T01:59:46.440Z,2.10
2023-05-18T02:00:46.432Z,2.30
2023-05-18T02:01:46.497Z,2.50
2023-05-18T02:02:46.515Z,2.30
2023-05-18T02:03:46.502Z,2.20
2023-05-18T02:04:46.392Z,2.50
2023-05-18T02:05:46.373Z,2.30
2023-05-18T02:06:46.384Z,2.10
2023-05-18T02:07:46.357Z,2.30
2023-05-18T02:08:46.388Z,2.20
2023-05-18T02:09:46.356Z,2.30
2023-05-18T02:10:46.314Z,2.20
2023-05-18T02:11:46.318Z,2.40
2023-05-18T02:12:46.345Z,2.20
2023-05-18T02:13:46.267Z,2.30
2023-05-18T02:14:46.290Z,2.20
2023-05-18T02:15:46.275Z,2.10
2023-05-18T02:16:46.481Z,2.30
2023-05-18T02:17:46.285Z,2.40
2023-05-18T02:18:46.286Z,2.30
2023-05-18T02:19:46.201Z,2.20
2023-05-18T02:20:46.208Z,2.30
2023-05-18T02:21:46.203Z,2.40
2023-05-18T02:22:46.197Z,2.10
2023-05-18T02:23:46.159Z,2.40
2023-05-18T02:24:46.147Z,2.20
2023-05-18T02:25:46.159Z,2.20
2023-05-18T02:26:46.142Z,2.30
2023-05-18T02:27:46.108Z,2.40
2023-05-18T02:28:46.133Z,2.20
2023-05-18T02:29:46.081Z,2.10
2023-05-18T02:30:46.085Z,2.40
2023-05-18T02:31:46.125Z,2.40
2023-05-18T02:32:46.136Z,2.50
2023-05-18T02:33:46.072Z,2.60
2023-05-18T02:34:46.093Z,2.60
2023-05-18T02:35:46.013Z,2.20
2023-05-18T02:36:46.001Z,2.70
2023-05-18T02:37:46.030Z,2.40
2023-05-18T02:38:45.995Z,2.50
2023-05-18T02:39:45.966Z,2.40
2023-05-18T02:40:45.996Z,2.80
2023-05-18T02:41:45.934Z,2.50
2023-05-18T02:42:45.948Z,2.40
2023-05-18T02:43:45.929Z,2.60
2023-05-18T02:44:45.906Z,2.10
2023-05-18T02:45:45.929Z,2.50
2023-05-18T02:46:45.940Z,2.40
2023-05-18T02:47:45.944Z,2.70
2023-05-18T02:48:45.902Z,2.10
2023-05-18T02:49:45.846Z,2.40
2023-05-18T02:50:45.847Z,2.30
2023-05-18T02:51:45.828Z,2.40
2023-05-18T02:52:45.861Z,2.20
2023-05-18T02:53:45.801Z,2.90
2023-05-18T02:54:45.787Z,2.30
2023-05-18T02:55:45.805Z,2.30
2023-05-18T02:56:45.793Z,2.20
2023-05-18T02:57:45.786Z,2.30
2023-05-18T02:58:45.757Z,2.80
2023-05-18T02:59:45.749Z,2.60
2023-05-18T03:00:45.731Z,2.60
2023-05-18T03:01:45.888Z,2.70
2023-05-18T03:02:45.841Z,2.20
2023-05-18T03:03:45.729Z,2.50
2023-05-18T03:04:46.970Z,2.90
2023-05-18T03:05:45.718Z,2.70
2023-05-18T03:06:45.669Z,2.40
2023-05-18T03:07:45.672Z,2.80
2023-05-18T03:08:45.665Z,2.40
2023-05-18T03:09:45.636Z,2.70
2023-05-18T03:10:45.626Z,2.40
2023-05-18T03:11:45.593Z,2.50
2023-05-18T03:12:45.612Z,2.60
2023-05-18T03:13:45.672Z,2.20
2023-05-18T03:14:45.582Z,2.30
2023-05-18T03:15:45.612Z,3.10
2023-05-18T03:16:45.614Z,2.70
2023-05-18T03:17:45.596Z,2.30
2023-05-18T03:18:45.575Z,2.50
2023-05-18T03:19:45.505Z,2.40
2023-05-18T03:20:45.522Z,2.30
2023-05-18T03:21:45.548Z,2.20
2023-05-18T03:22:45.472Z,2.70
2023-05-18T03:23:45.507Z,2.70
2023-05-18T03:24:45.462Z,2.10
2023-05-18T03:25:45.451Z,2.30
2023-05-18T03:26:45.472Z,2.20
2023-05-18T03:27:45.454Z,2.30
2023-05-18T03:28:45.446Z,2.20
2023-05-18T03:29:45.439Z,2.40
2023-05-18T03:30:45.388Z,2.60
2023-05-18T03:31:45.427Z,2.50
2023-05-18T03:32:45.473Z,2.40
2023-05-18T03:33:45.395Z,2.70
2023-05-18T03:34:45.403Z,2.70
2023-05-18T03:35:47.115Z,2.50
2023-05-18T03:36:45.323Z,2.40
2023-05-18T03:37:45.327Z,2.80
2023-05-18T03:38:45.306Z,2.60
2023-05-18T03:39:45.318Z,2.30
2023-05-18T03:40:45.272Z,2.40
2023-05-18T03:41:45.274Z,2.60
2023-05-18T03:42:45.291Z,2.50
2023-05-18T03:43:45.244Z,2.50
2023-05-18T03:44:45.249Z,2.40
2023-05-18T03:45:45.201Z,2.40
2023-05-18T03:46:45.296Z,2.20
2023-05-18T03:47:45.242Z,2.40
2023-05-18T03:48:45.218Z,2.50
2023-05-18T03:49:45.173Z,2.60
2023-05-18T03:50:45.179Z,2.70
2023-05-18T03:51:45.150Z,2.50
2023-05-18T03:52:45.135Z,2.50
2023-05-18T03:53:45.136Z,2.20
2023-05-18T03:54:45.161Z,2.20
2023-05-18T03:55:45.095Z,2.50
2023-05-18T03:56:45.102Z,2.40
2023-05-18T03:57:45.080Z,2.10
2023-05-18T03:58:45.086Z,2.30
2023-05-18T03:59:45.049Z,2.40
2023-05-18T04:00:45.100Z,2.90
2023-05-18T04:01:45.068Z,3.50
2023-05-18T04:02:45.086Z,3.40
2023-05-18T04:03:45.122Z,2.80
2023-05-18T04:04:45.019Z,2.40
2023-05-18T04:05:44.992Z,2.40
2023-05-18T04:06:44.988Z,2.40
2023-05-18T04:07:44.952Z,2.40
2023-05-18T04:08:44.978Z,2.20
2023-05-18T04:09:44.976Z,2.20
2023-05-18T04:10:44.953Z,2.40
2023-05-18T04:11:44.897Z,2.10
2023-05-18T04:12:44.971Z,2.20
2023-05-18T04:13:44.881Z,1.90
2023-05-18T04:14:44.928Z,2.20
2023-05-18T04:15:44.886Z,2.30
2023-05-18T04:16:44.943Z,2.40
2023-05-18T04:17:44.892Z,2.40
2023-05-18T04:18:44.888Z,2.30
2023-05-18T04:19:44.816Z,2.10
2023-05-18T04:20:44.802Z,2.10
2023-05-18T04:21:44.800Z,2.40
2023-05-18T04:22:44.785Z,2.30
2023-05-18T04:23:44.813Z,2.70
2023-05-18T04:24:44.767Z,2.20
2023-05-18T04:25:44.746Z,2.20
2023-05-18T04:26:44.735Z,2.60
2023-05-18T04:27:44.715Z,2.40
2023-05-18T04:28:44.787Z,2.90
2023-05-18T04:29:44.702Z,2.60
2023-05-18T04:30:44.688Z,2.40
2023-05-18T04:31:44.765Z,2.50
2023-05-18T04:32:44.705Z,2.10
2023-05-18T04:33:44.644Z,2.70
2023-05-18T04:34:44.689Z,2.40
2023-05-18T04:35:44.759Z,2.20
2023-05-18T04:36:44.621Z,2.60
2023-05-18T04:37:44.598Z,2.30
2023-05-18T04:38:44.593Z,2.10
2023-05-18T04:39:44.574Z,2.40
2023-05-18T04:40:44.614Z,2.40
2023-05-18T04:41:44.554Z,2.10
2023-05-18T04:42:44.562Z,2.30
2023-05-18T04:43:44.540Z,2.30
2023-05-18T04:44:44.538Z,2.00
2023-05-18T04:45:44.589Z,2.20
2023-05-18T04:46:44.501Z,2.30
2023-05-18T04:47:44.518Z,2.50
2023-05-18T04:48:44.518Z,2.40
2023-05-18T04:49:44.508Z,2.80
2023-05-18T04:50:44.484Z,2.50
2023-05-18T04:51:44.456Z,2.50
2023-05-18T04:52:44.450Z,2.40
2023-05-18T04:53:44.420Z,2.50
2023-05-18T04:54:44.411Z,2.40
2023-05-18T04:55:44.449Z,2.20
2023-05-18T04:56:44.395Z,2.30
2023-05-18T04:57:44.393Z,2.10
2023-05-18T04:58:44.382Z,2.30
2023-05-18T04:59:44.378Z,2.40
2023-05-18T05:00:44.372Z,2.10
2023-05-18T05:01:44.461Z,2.10
2023-05-18T05:02:44.550Z,2.30
2023-05-18T05:03:44.548Z,2.50
2023-05-18T05:04:44.302Z,2.40
2023-05-18T05:05:44.285Z,2.50
2023-05-18T05:06:44.313Z,2.40
2023-05-18T05:07:44.274Z,2.30
2023-05-18T05:08:44.258Z,2.40
2023-05-18T05:09:44.236Z,2.10
2023-05-18T05:10:44.253Z,2.40
2023-05-18T05:11:44.251Z,2.00
2023-05-18T05:12:44.220Z,2.30
2023-05-18T05:13:44.202Z,2.10
2023-05-18T05:14:44.185Z,2.50
2023-05-18T05:15:44.240Z,2.20
2023-05-18T05:16:44.162Z,2.10
2023-05-18T05:17:44.265Z,2.40
2023-05-18T05:18:47.106Z,2.00
2023-05-18T05:19:44.113Z,2.00
2023-05-18T05:20:44.138Z,2.30
2023-05-18T05:21:44.102Z,2.20
2023-05-18T05:22:44.122Z,2.20
2023-05-18T05:23:44.058Z,2.50
2023-05-18T05:24:44.085Z,2.60
2023-05-18T05:25:44.079Z,2.30
2023-05-18T05:26:44.076Z,2.20
2023-05-18T05:27:44.036Z,2.50
2023-05-18T05:28:44.038Z,2.20
2023-05-18T05:29:44.009Z,2.40
2023-05-18T05:30:43.996Z,2.40
2023-05-18T05:31:43.998Z,2.60
2023-05-18T05:32:44.055Z,2.40
2023-05-18T05:33:43.954Z,2.20
2023-05-18T05:34:43.980Z,2.50
2023-05-18T05:35:43.947Z,2.20
2023-05-18T05:36:43.943Z,2.10
2023-05-18T05:37:43.923Z,2.20
2023-05-18T05:38:43.942Z,2.50
2023-05-18T05:39:43.925Z,2.70
2023-05-18T05:40:43.907Z,2.20
2023-05-18T05:41:43.889Z,2.10
2023-05-18T05:42:43.860Z,1.90
2023-05-18T05:43:43.970Z,3.00
2023-05-18T05:44:43.863Z,2.70
2023-05-18T05:45:43.813Z,2.10
2023-05-18T05:46:43.863Z,2.30
2023-05-18T05:47:43.840Z,2.30
2023-05-18T05:48:43.795Z,2.50
2023-05-18T05:49:43.844Z,2.40
2023-05-18T05:50:43.802Z,2.00
2023-05-18T05:51:43.758Z,2.30
2023-05-18T05:52:43.755Z,2.00
2023-05-18T05:53:43.729Z,1.90
2023-05-18T05:54:43.730Z,1.90
2023-05-18T05:55:43.715Z,2.00
2023-05-18T05:56:43.690Z,2.10
2023-05-18T05:57:43.732Z,2.10
2023-05-18T05:58:43.678Z,1.70
2023-05-18T05:59:43.669Z,1.90
2023-05-18T06:00:43.676Z,1.70
2023-05-18T06:01:43.670Z,1.80
2023-05-18T06:02:43.714Z,1.60
2023-05-18T06:03:43.652Z,1.80
2023-05-18T06:04:43.612Z,1.80
2023-05-18T06:05:43.609Z,1.80
2023-05-18T06:06:43.583Z,1.70
2023-05-18T06:07:43.596Z,1.80
2023-05-18T06:08:43.572Z,1.80
2023-05-18T06:09:43.528Z,2.10
2023-05-18T06:10:43.530Z,1.60
2023-05-18T06:11:43.541Z,2.00
2023-05-18T06:12:43.510Z,1.70
2023-05-18T06:13:43.556Z,1.70
2023-05-18T06:14:43.471Z,1.60
2023-05-18T06:15:43.493Z,1.70
2023-05-18T06:16:43.491Z,1.70
2023-05-18T06:17:43.496Z,1.70
2023-05-18T06:18:43.478Z,1.70
2023-05-18T06:19:43.451Z,1.50
2023-05-18T06:20:43.467Z,1.70
2023-05-18T06:21:43.405Z,1.50
2023-05-18T06:22:43.386Z,1.60
2023-05-18T06:23:43.369Z,1.70
2023-05-18T06:24:43.434Z,1.50
2023-05-18T06:25:43.352Z,1.70
2023-05-18T06:26:43.355Z,1.60
2023-05-18T06:27:43.336Z,1.60
2023-05-18T06:28:43.345Z,2.10
2023-05-18T06:29:43.371Z,1.90
2023-05-18T06:30:43.305Z,1.70
2023-05-18T06:31:43.321Z,1.70
2023-05-18T06:32:43.347Z,1.50
2023-05-18T06:33:43.266Z,1.60
2023-05-18T06:34:43.274Z,1.60
2023-05-18T06:35:43.285Z,1.50
2023-05-18T06:36:43.265Z,1.60
2023-05-18T06:37:44.721Z,1.80
2023-05-18T06:38:43.226Z,1.40
2023-05-18T06:39:43.200Z,1.60
2023-05-18T06:40:43.185Z,1.50
2023-05-18T06:41:43.211Z,1.50
2023-05-18T06:42:43.191Z,1.80
2023-05-18T06:43:43.151Z,1.40
2023-05-18T06:44:43.161Z,1.50
2023-05-18T06:45:43.142Z,1.60
2023-05-18T06:46:43.206Z,1.90
2023-05-18T06:47:43.164Z,1.60
2023-05-18T06:48:43.133Z,1.30
2023-05-18T06:49:43.111Z,1.60
2023-05-18T06:50:43.110Z,1.50
2023-05-18T06:51:43.064Z,1.40
2023-05-18T06:52:43.052Z,1.50
2023-05-18T06:53:43.083Z,1.50
2023-05-18T06:54:43.090Z,1.60
2023-05-18T06:55:43.041Z,1.60
2023-05-18T06:56:43.000Z,1.60
2023-05-18T06:57:42.993Z,1.40
2023-05-18T06:58:42.998Z,1.50
2023-05-18T06:59:42.995Z,1.60
2023-05-18T07:00:43.002Z,1.50
2023-05-18T07:01:43.010Z,1.70
2023-05-18T07:02:42.960Z,1.60
2023-05-18T07:03:42.967Z,1.40
2023-05-18T07:04:42.936Z,1.40
2023-05-18T07:05:42.923Z,1.50
2023-05-18T07:06:42.966Z,1.50
2023-05-18T07:07:42.984Z,1.60
2023-05-18T07:08:42.877Z,1.60
2023-05-18T07:09:42.870Z,1.60
2023-05-18T07:10:42.887Z,1.40
2023-05-18T07:11:42.846Z,1.50
2023-05-18T07:12:42.881Z,1.60
2023-05-18T07:13:42.821Z,1.30
2023-05-18T07:14:42.803Z,1.40
2023-05-18T07:15:42.828Z,1.40
2023-05-18T07:16:42.808Z,1.50
2023-05-18T07:17:42.824Z,1.40
2023-05-18T07:18:42.818Z,1.50
2023-05-18T07:19:42.746Z,1.30
2023-05-18T07:20:42.765Z,1.30
2023-05-18T07:21:42.752Z,1.30
2023-05-18T07:22:42.722Z,1.30
2023-05-18T07:23:42.691Z,1.50
2023-05-18T07:24:42.717Z,1.30
2023-05-18T07:25:42.707Z,1.40
2023-05-18T07:26:42.661Z,1.50
2023-05-18T07:27:42.648Z,1.30
2023-05-18T07:28:42.677Z,1.20
2023-05-18T07:29:42.648Z,1.20
2023-05-18T07:30:42.650Z,1.40
2023-05-18T07:31:42.746Z,1.20
2023-05-18T07:32:42.642Z,1.50
2023-05-18T07:33:42.624Z,1.40
2023-05-18T07:34:42.593Z,1.40
2023-05-18T07:35:42.609Z,1.50
2023-05-18T07:36:42.627Z,1.30
2023-05-18T07:37:42.661Z,1.30
2023-05-18T07:38:42.579Z,1.30
2023-05-18T07:39:42.561Z,1.20
2023-05-18T07:40:42.524Z,1.30
2023-05-18T07:41:42.549Z,1.10
2023-05-18T07:42:42.500Z,1.50
2023-05-18T07:43:42.500Z,1.30
2023-05-18T07:44:42.496Z,1.30
2023-05-18T07:45:42.479Z,1.20
2023-05-18T07:46:42.542Z,1.30
2023-05-18T07:47:42.553Z,1.20
2023-05-18T07:48:42.440Z,1.20
2023-05-18T07:49:42.430Z,1.30
2023-05-18T07:50:42.465Z,1.30
2023-05-18T07:51:42.458Z,1.20
2023-05-18T07:52:42.404Z,1.30
2023-05-18T07:53:42.401Z,1.00
2023-05-18T07:54:42.379Z,1.30
2023-05-18T07:55:42.348Z,1.20
2023-05-18T07:56:42.359Z,1.20
2023-05-18T07:57:42.607Z,1.20
2023-05-18T07:58:42.334Z,1.30
2023-05-18T07:59:42.332Z,1.10
2023-05-18T08:00:42.309Z,1.20
2023-05-18T08:01:42.316Z,1.30
2023-05-18T08:02:42.526Z,1.20
2023-05-18T08:03:42.455Z,1.20
2023-05-18T08:04:42.262Z,1.20
2023-05-18T08:05:42.251Z,1.10
2023-05-18T08:06:42.239Z,1.40
2023-05-18T08:07:42.233Z,1.10
2023-05-18T08:08:42.211Z,1.20
2023-05-18T08:09:42.282Z,1.40
2023-05-18T08:10:42.197Z,1.20
2023-05-18T08:11:42.177Z,1.10
2023-05-18T08:12:42.178Z,1.10
2023-05-18T08:13:42.179Z,1.20
2023-05-18T08:14:42.164Z,1.50
2023-05-18T08:15:42.132Z,1.20
2023-05-18T08:16:42.275Z,1.00
2023-05-18T08:17:42.215Z,1.20
2023-05-18T08:18:42.267Z,1.20
2023-05-18T08:19:42.181Z,1.20
2023-05-18T08:20:42.116Z,1.40
2023-05-18T08:21:42.105Z,1.40
2023-05-18T08:22:42.114Z,1.60
2023-05-18T08:23:42.055Z,1.20
2023-05-18T08:24:42.056Z,1.20
2023-05-18T08:25:42.059Z,1.20
2023-05-18T08:26:42.012Z,1.20
2023-05-18T08:27:42.061Z,1.00
2023-05-18T08:28:43.060Z,1.30
2023-05-18T08:29:42.021Z,1.00
2023-05-18T08:30:42.019Z,1.30
2023-05-18T08:31:42.008Z,1.20
2023-05-18T08:32:42.010Z,1.20
2023-05-18T08:33:41.965Z,1.10
2023-05-18T08:34:41.926Z,1.10
2023-05-18T08:35:41.938Z,1.50
2023-05-18T08:36:41.899Z,1.50
2023-05-18T08:37:41.907Z,1.20
2023-05-18T08:38:41.902Z,1.40
2023-05-18T08:39:41.894Z,1.10
2023-05-18T08:40:41.911Z,1.30
2023-05-18T08:41:41.851Z,1.40
2023-05-18T08:42:50.120Z,1.40
2023-05-18T08:43:42.837Z,2.60
2023-05-18T08:44:41.837Z,1.60
2023-05-18T08:45:41.816Z,1.20
2023-05-18T08:46:41.816Z,1.40
2023-05-18T08:47:41.941Z,1.10
2023-05-18T08:48:41.879Z,1.30
2023-05-18T08:49:41.769Z,1.60
2023-05-18T08:50:41.784Z,6.40
2023-05-18T08:51:41.769Z,1.80
2023-05-18T08:52:41.764Z,1.20
2023-05-18T08:53:41.746Z,1.00
2023-05-18T08:54:41.713Z,1.20
2023-05-18T08:55:41.732Z,1.10
2023-05-18T08:56:41.675Z,1.20
2023-05-18T08:57:41.673Z,1.10
2023-05-18T08:58:41.723Z,1.20
2023-05-18T08:59:41.681Z,1.30
2023-05-18T09:00:41.641Z,1.00
2023-05-18T09:01:41.699Z,1.40
2023-05-18T09:02:41.652Z,1.20
2023-05-18T09:03:41.641Z,1.20
2023-05-18T09:04:41.649Z,1.10
2023-05-18T09:05:41.620Z,1.30
2023-05-18T09:06:41.600Z,1.00
2023-05-18T09:07:41.583Z,1.30
2023-05-18T09:08:41.575Z,1.10
2023-05-18T09:09:41.584Z,1.10
2023-05-18T09:10:41.558Z,1.30
2023-05-18T09:11:41.526Z,1.20
2023-05-18T09:12:41.523Z,1.10
2023-05-18T09:13:41.544Z,1.10
2023-05-18T09:14:41.528Z,1.30
2023-05-18T09:15:41.579Z,1.50
2023-05-18T09:16:41.509Z,1.30
2023-05-18T09:17:41.527Z,1.10
2023-05-18T09:18:41.540Z,1.20
2023-05-18T09:19:41.450Z,1.10
2023-05-18T09:20:41.449Z,1.50
2023-05-18T09:21:41.454Z,1.20
2023-05-18T09:22:41.403Z,1.30
2023-05-18T09:23:41.412Z,1.30
2023-05-18T09:24:41.410Z,1.20
2023-05-18T09:25:41.394Z,1.10
2023-05-18T09:26:41.383Z,1.00
2023-05-18T09:27:41.357Z,1.50
2023-05-18T09:28:41.367Z,1.20
2023-05-18T09:29:41.340Z,1.00
2023-05-18T09:30:41.315Z,1.30
2023-05-18T09:31:41.410Z,1.30
2023-05-18T09:32:41.378Z,1.20
2023-05-18T09:33:41.392Z,1.10
2023-05-18T09:34:41.275Z,1.30
2023-05-18T09:35:41.286Z,1.20
2023-05-18T09:36:41.259Z,1.20
2023-05-18T09:37:41.257Z,1.10
2023-05-18T09:38:41.255Z,1.20
2023-05-18T09:39:41.235Z,1.20
2023-05-18T09:40:41.239Z,1.10
2023-05-18T09:41:41.213Z,1.20
2023-05-18T09:42:41.201Z,1.40
2023-05-18T09:43:41.220Z,1.20
2023-05-18T09:44:41.204Z,1.20
2023-05-18T09:45:41.175Z,1.40
2023-05-18T09:46:41.141Z,1.50
2023-05-18T09:47:41.187Z,1.40
2023-05-18T09:48:41.136Z,1.20
2023-05-18T09:49:41.156Z,1.20
2023-05-18T09:50:41.137Z,1.40
2023-05-18T09:51:41.090Z,1.50
2023-05-18T09:52:41.076Z,1.10
2023-05-18T09:53:41.094Z,1.10
2023-05-18T09:54:41.048Z,1.30
2023-05-18T09:55:41.091Z,1.30
2023-05-18T09:56:41.062Z,1.40
2023-05-18T09:57:41.026Z,1.40
2023-05-18T09:58:41.024Z,1.30
2023-05-18T09:59:41.052Z,1.30
2023-05-18T10:00:41.014Z,1.30
2023-05-18T10:01:40.990Z,1.00
2023-05-18T10:02:40.996Z,1.20
2023-05-18T10:03:40.967Z,1.20
2023-05-18T10:04:41.078Z,1.30
2023-05-18T10:05:40.961Z,1.30
2023-05-18T10:06:40.919Z,1.20
2023-05-18T10:07:40.923Z,1.10
2023-05-18T10:08:40.924Z,1.20
2023-05-18T10:09:40.923Z,1.20
2023-05-18T10:10:40.918Z,1.40
2023-05-18T10:11:40.876Z,1.20
2023-05-18T10:12:40.938Z,1.00
2023-05-18T10:13:40.842Z,1.40
2023-05-18T10:14:40.848Z,1.10
2023-05-18T10:15:40.835Z,1.00
2023-05-18T10:16:40.879Z,1.30
2023-05-18T10:17:40.941Z,1.30
2023-05-18T10:18:40.865Z,1.20
2023-05-18T10:19:40.793Z,1.20
2023-05-18T10:20:40.775Z,1.40
2023-05-18T10:21:40.761Z,1.20
2023-05-18T10:22:40.791Z,1.20
2023-05-18T10:23:40.739Z,1.30
2023-05-18T10:24:40.726Z,1.20
2023-05-18T10:25:40.734Z,1.20
2023-05-18T10:26:40.712Z,1.10
2023-05-18T10:27:40.728Z,1.30
2023-05-18T10:28:40.700Z,1.20
2023-05-18T10:29:40.680Z,1.20
2023-05-18T10:30:40.696Z,1.60
2023-05-18T10:31:40.663Z,1.40
2023-05-18T10:32:40.680Z,1.30
2023-05-18T10:33:40.748Z,1.40
2023-05-18T10:34:40.618Z,1.30
2023-05-18T10:35:40.666Z,1.10
2023-05-18T10:36:40.627Z,1.20
2023-05-18T10:37:40.588Z,1.30
2023-05-18T10:38:40.652Z,1.00
2023-05-18T10:39:40.569Z,1.40
2023-05-18T10:40:40.575Z,0.90
2023-05-18T10:41:40.546Z,0.90
2023-05-18T10:42:40.532Z,1.10
2023-05-18T10:43:40.507Z,1.30
2023-05-18T10:44:40.538Z,0.90
2023-05-18T10:45:40.530Z,1.20
2023-05-18T10:46:40.591Z,1.10
2023-05-18T10:47:40.744Z,1.10
2023-05-18T10:48:40.500Z,1.10
2023-05-18T10:49:40.457Z,1.00
2023-05-18T10:50:40.427Z,1.20
2023-05-18T10:51:40.438Z,1.10
2023-05-18T10:52:40.405Z,1.20
2023-05-18T10:53:40.397Z,1.40
2023-05-18T10:54:40.420Z,1.30
2023-05-18T10:55:40.389Z,1.40
2023-05-18T10:56:40.364Z,1.20
2023-05-18T10:57:40.382Z,1.40
2023-05-18T10:58:40.362Z,1.00
2023-05-18T10:59:41.931Z,1.20
2023-05-18T11:00:40.360Z,1.30
2023-05-18T11:01:40.361Z,1.20
2023-05-18T11:02:40.372Z,1.20
2023-05-18T11:03:40.306Z,1.20
2023-05-18T11:04:40.347Z,1.20
2023-05-18T11:05:40.281Z,1.30
2023-05-18T11:06:40.263Z,1.00
2023-05-18T11:07:40.268Z,1.10
2023-05-18T11:08:40.260Z,1.20
2023-05-18T11:09:40.232Z,1.10
2023-05-18T11:10:40.237Z,1.10
2023-05-18T11:11:40.220Z,1.10
2023-05-18T11:12:40.203Z,1.10
2023-05-18T11:13:40.184Z,1.40
2023-05-18T11:14:40.176Z,1.50
2023-05-18T11:15:40.173Z,1.30
2023-05-18T11:16:40.196Z,1.30
2023-05-18T11:17:40.228Z,1.00
2023-05-18T11:18:40.118Z,1.10
2023-05-18T11:19:40.102Z,1.10
2023-05-18T11:20:40.141Z,1.10
2023-05-18T11:21:40.101Z,1.10
2023-05-18T11:22:40.122Z,1.10
2023-05-18T11:23:40.076Z,0.80
2023-05-18T11:24:40.057Z,0.90
2023-05-18T11:25:40.075Z,1.10
2023-05-18T11:26:40.025Z,1.10
2023-05-18T11:27:40.025Z,1.10
2023-05-18T11:28:40.046Z,1.00
2023-05-18T11:29:39.990Z,1.10
2023-05-18T11:30:40.003Z,1.10
2023-05-18T11:31:40.023Z,1.10
2023-05-18T11:32:40.038Z,0.90
2023-05-18T11:33:40.026Z,0.90
2023-05-18T11:34:40.061Z,1.00
2023-05-18T11:35:39.941Z,1.00
2023-05-18T11:36:39.928Z,1.00
2023-05-18T11:37:39.950Z,0.90
2023-05-18T11:38:44.352Z,1.00
2023-05-18T11:39:51.738Z,1.00
2023-05-18T11:40:40.901Z,1.10
2023-05-18T11:41:39.863Z,0.70
2023-05-18T11:42:39.942Z,0.90
2023-05-18T11:43:39.855Z,1.20
2023-05-18T11:44:39.829Z,1.10
2023-05-18T11:45:39.820Z,1.00
2023-05-18T11:46:39.826Z,1.00
2023-05-18T11:47:39.943Z,1.10
2023-05-18T11:48:39.878Z,1.60
2023-05-18T11:49:39.835Z,1.10
2023-05-18T11:50:39.800Z,1.00
2023-05-18T11:51:39.769Z,1.10
2023-05-18T11:52:39.759Z,1.20
2023-05-18T11:53:39.783Z,1.00
2023-05-18T11:54:39.792Z,1.00
2023-05-18T11:55:39.728Z,1.10
2023-05-18T11:56:39.701Z,1.60
2023-05-18T11:57:39.698Z,1.20
2023-05-18T11:58:39.691Z,0.90
2023-05-18T11:59:39.728Z,1.10
2023-05-18T12:00:39.796Z,1.10
2023-05-18T12:01:39.649Z,1.40
2023-05-18T12:02:39.715Z,1.00
2023-05-18T12:03:39.941Z,1.20
2023-05-18T12:04:39.691Z,1.40
2023-05-18T12:05:39.609Z,1.30
2023-05-18T12:06:39.642Z,1.30
2023-05-18T12:07:39.598Z,1.60
2023-05-18T12:08:39.571Z,1.30
2023-05-18T12:09:39.568Z,1.20
2023-05-18T12:10:39.585Z,1.20
2023-05-18T12:11:39.556Z,1.00
2023-05-18T12:12:39.662Z,1.10
2023-05-18T12:13:39.556Z,1.30
2023-05-18T12:14:39.512Z,1.20
2023-05-18T12:15:39.517Z,0.90
2023-05-18T12:16:39.575Z,1.20
2023-05-18T12:17:39.501Z,1.20
2023-05-18T12:18:39.496Z,1.10
2023-05-18T12:19:39.453Z,1.20
2023-05-18T12:20:39.451Z,1.00
2023-05-18T12:21:39.419Z,1.10
2023-05-18T12:22:39.462Z,1.20
2023-05-18T12:23:39.434Z,1.10
2023-05-18T12:24:39.386Z,1.30
2023-05-18T12:25:39.391Z,1.10
2023-05-18T12:26:39.375Z,1.10
2023-05-18T12:27:39.369Z,1.60
2023-05-18T12:28:39.402Z,1.40
2023-05-18T12:29:39.340Z,1.20
2023-05-18T12:30:39.328Z,1.10
2023-05-18T12:31:39.351Z,1.10
2023-05-18T12:32:39.387Z,1.20
2023-05-18T12:33:39.302Z,1.00
2023-05-18T12:34:39.290Z,1.00
2023-05-18T12:35:39.270Z,1.20
2023-05-18T12:36:39.287Z,1.00
2023-05-18T12:38:40.294Z,1.00
2023-05-18T12:39:39.216Z,0.80
2023-05-18T12:40:39.216Z,1.20
2023-05-18T12:41:39.220Z,1.10
2023-05-18T12:42:39.192Z,1.10
2023-05-18T12:43:39.180Z,0.90
2023-05-18T12:44:39.201Z,1.20
2023-05-18T12:45:39.156Z,1.20
2023-05-18T12:46:39.248Z,1.00
2023-05-18T12:47:39.191Z,1.10
2023-05-18T12:48:39.105Z,1.00
2023-05-18T12:49:39.129Z,0.90
2023-05-18T12:50:39.090Z,0.70
2023-05-18T12:51:39.077Z,1.10
2023-05-18T12:52:39.087Z,1.00
2023-05-18T12:53:39.057Z,1.10
2023-05-18T12:54:39.059Z,1.10
2023-05-18T12:55:39.087Z,1.00
2023-05-18T12:56:39.044Z,1.00
2023-05-18T12:57:39.004Z,1.00
2023-05-18T12:58:39.027Z,1.30
2023-05-18T12:59:39.015Z,1.10
2023-05-18T13:00:38.981Z,1.20
2023-05-18T13:01:39.000Z,1.30
2023-05-18T13:02:39.095Z,1.10
2023-05-18T13:03:39.131Z,1.00
2023-05-18T13:04:38.961Z,1.10
2023-05-18T13:05:38.930Z,0.90
2023-05-18T13:06:38.909Z,1.10
2023-05-18T13:07:38.927Z,1.00
2023-05-18T13:08:38.888Z,1.00
2023-05-18T13:09:38.916Z,1.10
2023-05-18T13:10:38.891Z,1.00
2023-05-18T13:11:38.869Z,1.00
2023-05-18T13:12:38.840Z,1.10
2023-05-18T13:13:38.856Z,1.10
2023-05-18T13:14:38.835Z,1.10
2023-05-18T13:15:38.865Z,1.40
2023-05-18T13:16:38.928Z,1.10
2023-05-18T13:17:38.841Z,0.90
2023-05-18T13:18:38.853Z,1.00
2023-05-18T13:19:38.766Z,1.30